Noyabr'sk, Russia
Current Conditions -  °F | °C
As of 1:30 AM on Monday 22 Dec 2014 (Local Time) from USRR Reporting Station
Snow Showers Snow Showers  
Wind Chill: 14°   Ceiling: 800
Heat Index: 25°   Visibility: 2.8mi
Dew Point: 21°   Wind: 11mph
Humidity: 86%   Direction: 200°SSW
Pressure: 29.5"   Gusts: 18mph
Location:  64.34°N, 76.21°E
Report Text: USRR 212030Z 20005G08MPS 160V230 4600 -SHSN BKN008 BKN019CBM04/M06 Q0999 RESN TEMPO 2000 SHSN BKN005 RMK OBST OBSC QFE74425////38
Loading
Personal Weather Stations






























Interactive Weather Map New forecast layout! Learn more

10-Day Weather Forecast

Advertisements
Track Severe Weather on mobile